Time;durP1;ratioP1;P1;durP2;ratioP2;P2;SDS_P1;SDS_P2;PMS_P1;PMS_P2;Temp;Humidity;BMP_temperature;BMP_pressure;BME280_temperature;BME280_humidity;BME280_pressure;Samples;Min_cycle;Max_cycle;Signal;HPM_P1;HPM_P2
2021/12/21 00:00:39;;;;;;;0.30;0.30;;;-1.90;99.90;;;;;;5072925;28;20401;-82
2021/12/21 00:03:06;;;;;;;0.40;0.40;;;-2.00;99.90;;;;;;5088898;28;20053;-84
2021/12/21 00:05:33;;;;;;;0.25;0.25;;;-2.00;99.90;;;;;;5056177;28;20037;-82
2021/12/21 00:08:03;;;;;;;0.30;0.30;;;-2.00;99.90;;;;;;5089693;28;20044;-84
2021/12/21 00:10:32;;;;;;;0.30;0.30;;;-2.00;99.90;;;;;;5073249;28;20041;-84
2021/12/21 00:13:07;;;;;;;0.30;0.30;;;-2.00;99.90;;;;;;5089065;28;20033;-84
2021/12/21 00:21:04;;;;;;;0.40;0.40;;;-2.00;99.90;;;;;;5072670;28;20048;-84
2021/12/21 00:23:36;;;;;;;0.40;0.40;;;-1.00;99.90;;;;;;5087997;28;20448;-84
2021/12/21 00:26:15;;;;;;;0.40;0.40;;;-2.10;99.90;;;;;;5072787;28;20055;-84
2021/12/21 00:31:10;;;;;;;0.40;0.40;;;-2.10;99.90;;;;;;5088273;28;20049;-82
2021/12/21 00:33:40;;;;;;;0.30;0.30;;;-2.10;99.90;;;;;;5055261;28;20036;-82
2021/12/21 00:36:08;;;;;;;0.20;0.20;;;-2.10;99.90;;;;;;5088848;28;20080;-82
2021/12/21 00:38:35;;;;;;;0.40;0.40;;;-2.10;99.90;;;;;;5056065;28;20040;-85
2021/12/21 00:41:02;;;;;;;0.38;0.38;;;-2.10;99.90;;;;;;5071517;28;20044;-84
2021/12/21 00:43:29;;;;;;;0.30;0.30;;;-2.10;99.90;;;;;;5089049;28;20037;-84
2021/12/21 00:45:57;;;;;;;0.30;0.30;;;-2.10;99.90;;;;;;5072580;28;20114;-82
2021/12/21 00:48:28;;;;;;;0.30;0.30;;;-2.10;99.90;;;;;;5071655;28;20033;-86
2021/12/21 00:50:57;;;;;;;0.47;0.43;;;-2.60;99.90;;;;;;5056429;28;20083;-82
2021/12/21 00:53:25;;;;;;;0.38;0.38;;;-1.20;99.90;;;;;;5071417;28;20068;-84
2021/12/21 00:55:52;;;;;;;0.30;0.30;;;-2.10;99.90;;;;;;5071481;28;20563;-84
2021/12/21 00:58:19;;;;;;;0.35;0.35;;;-2.10;99.90;;;;;;5055863;28;20106;-82
2021/12/21 01:00:46;;;;;;;0.30;0.30;;;-2.10;99.90;;;;;;5088763;28;20493;-82
2021/12/21 01:03:15;;;;;;;0.30;0.30;;;-2.20;99.90;;;;;;5054670;28;20048;-82
2021/12/21 01:05:50;;;;;;;0.20;0.20;;;-1.20;99.90;;;;;;5055169;28;20047;-82
2021/12/21 01:08:22;;;;;;;0.30;0.30;;;-1.60;99.90;;;;;;5088094;28;20075;-82
2021/12/21 01:11:12;;;;;;;0.22;0.22;;;-2.20;99.90;;;;;;5072345;28;20044;-84
2021/12/21 01:19:09;;;;;;;0.30;0.30;;;-1.00;99.90;;;;;;5069378;28;20082;-85
2021/12/21 01:22:08;;;;;;;0.30;0.30;;;-2.30;99.90;;;;;;5057813;28;20105;-82
2021/12/21 01:24:39;;;;;;;0.30;0.30;;;-2.00;99.90;;;;;;5087598;28;20044;-82
2021/12/21 01:27:23;;;;;;;0.30;0.30;;;-2.20;99.90;;;;;;5073961;28;20045;-81
2021/12/21 01:35:05;;;;;;;0.30;0.30;;;-2.30;99.90;;;;;;5071153;28;20560;-84
2021/12/21 01:37:55;;;;;;;0.32;0.32;;;-2.40;99.90;;;;;;5056182;28;20067;-85
2021/12/21 01:43:28;;;;;;;0.40;0.40;;;-2.30;99.90;;;;;;5087474;28;20489;-82
2021/12/21 01:51:25;;;;;;;0.30;0.30;;;-2.40;99.90;;;;;;5086741;28;20127;-82
2021/12/21 01:53:53;;;;;;;0.30;0.30;;;-2.40;99.90;;;;;;5071787;28;20159;-85
2021/12/21 01:56:20;;;;;;;0.30;0.30;;;-2.40;99.90;;;;;;5088187;28;20107;-82
2021/12/21 01:58:47;;;;;;;0.28;0.28;;;-2.40;99.90;;;;;;5088318;28;20486;-85
2021/12/21 02:01:17;;;;;;;0.40;0.40;;;-2.00;99.90;;;;;;5054081;28;20037;-82
2021/12/21 02:03:47;;;;;;;1.30;0.95;;;-2.50;99.90;;;;;;5086997;28;20056;-85
2021/12/21 02:06:17;;;;;;;0.30;0.30;;;-2.50;99.90;;;;;;5070751;28;20093;-82
2021/12/21 02:08:44;;;;;;;0.30;0.30;;;-1.90;99.90;;;;;;5087882;28;20136;-82
2021/12/21 02:11:13;;;;;;;0.30;0.30;;;-1.30;99.90;;;;;;5087807;28;20115;-82
2021/12/21 02:13:45;;;;;;;0.40;0.40;;;-2.50;99.90;;;;;;5054073;28;20033;-82
2021/12/21 02:16:14;;;;;;;0.30;0.30;;;-2.50;99.90;;;;;;5086879;28;20543;-85
2021/12/21 02:23:57;;;;;;;0.30;0.30;;;-2.50;99.90;;;;;;5072743;28;20076;-85
2021/12/21 02:26:39;;;;;;;0.30;0.30;;;-2.50;99.90;;;;;;5070518;28;20036;-82
2021/12/21 02:29:17;;;;;;;0.30;0.30;;;-2.60;99.90;;;;;;5072610;28;20037;-82
2021/12/21 02:31:47;;;;;;;0.30;0.30;;;-2.60;99.90;;;;;;5055326;28;20072;-85
2021/12/21 02:34:16;;;;;;;0.30;0.30;;;-1.70;99.90;;;;;;5087059;28;20096;-85
2021/12/21 02:36:46;;;;;;;0.30;0.30;;;-2.60;99.90;;;;;;5070463;28;20107;-84
2021/12/21 02:39:14;;;;;;;0.40;0.40;;;-2.60;99.90;;;;;;5086459;28;20045;-82
2021/12/21 02:41:42;;;;;;;0.38;0.38;;;-2.60;99.90;;;;;;5086247;28;20094;-82
2021/12/21 02:44:10;;;;;;;0.57;0.57;;;-2.60;99.90;;;;;;5053308;28;20049;-85
2021/12/21 02:46:39;;;;;;;0.30;0.30;;;-2.60;99.90;;;;;;5085590;28;20486;-84
2021/12/21 02:49:08;;;;;;;0.40;0.40;;;-2.10;99.90;;;;;;5086475;28;20080;-85
2021/12/21 02:51:38;;;;;;;0.40;0.40;;;-1.50;99.90;;;;;;5053188;28;20436;-85
2021/12/21 02:54:05;;;;;;;0.32;0.32;;;-2.60;99.90;;;;;;5070173;28;20048;-85
2021/12/21 02:56:32;;;;;;;0.30;0.30;;;-2.60;99.90;;;;;;5087137;28;20081;-82
2021/12/21 02:58:59;;;;;;;0.30;0.30;;;-2.70;99.90;;;;;;5069604;28;20041;-86
2021/12/21 03:01:26;;;;;;;0.40;0.40;;;-2.70;99.90;;;;;;5069194;28;20045;-82
2021/12/21 03:03:53;;;;;;;0.40;0.40;;;-2.60;99.90;;;;;;5070197;28;20057;-85
2021/12/21 03:13:53;;;;;;;0.38;0.38;;;-2.70;99.90;;;;;;5072208;28;20044;-84
2021/12/21 03:14:45;;;;;;;0.30;0.30;;;-2.70;99.90;;;;;;5073588;28;20458;-82
2021/12/21 03:17:12;;;;;;;0.20;0.20;;;-2.70;99.90;;;;;;5052984;28;20083;-82
2021/12/21 03:19:39;;;;;;;0.30;0.30;;;-2.70;99.90;;;;;;5052689;28;20041;-82
2021/12/21 03:22:07;;;;;;;0.30;0.30;;;-1.90;99.90;;;;;;5086202;28;20047;-82
2021/12/21 03:24:34;;;;;;;0.30;0.30;;;;;;;;;;5052397;28;20036;-84
2021/12/21 03:27:02;;;;;;;0.38;0.38;;;-2.70;99.90;;;;;;5086850;28;20049;-82
2021/12/21 03:29:30;;;;;;;0.35;0.35;;;-2.70;99.90;;;;;;5070071;28;20041;-85
2021/12/21 03:31:57;;;;;;;0.30;0.30;;;-2.70;99.90;;;;;;5053701;28;20037;-82
2021/12/21 03:34:24;;;;;;;0.40;0.40;;;-2.70;99.90;;;;;;5053281;28;20037;-85
2021/12/21 03:36:51;;;;;;;0.30;0.30;;;-2.80;99.90;;;;;;5069279;28;20102;-84
2021/12/21 03:39:19;;;;;;;0.40;0.40;;;-2.80;99.90;;;;;;5052919;28;20045;-86
2021/12/21 03:41:50;;;;;;;0.30;0.30;;;-2.70;99.90;;;;;;5086045;28;20049;-84
2021/12/21 03:44:18;;;;;;;0.30;0.30;;;-2.80;99.90;;;;;;5086726;28;20049;-82
2021/12/21 03:46:49;;;;;;;0.30;0.30;;;-2.80;99.90;;;;;;5086225;28;20118;-82
2021/12/21 03:52:07;;;;;;;0.30;0.30;;;-2.80;99.90;;;;;;5086894;28;20059;-82
2021/12/21 03:54:36;;;;;;;0.30;0.30;;;-2.80;99.90;;;;;;5068481;28;20386;-82
2021/12/21 03:57:03;;;;;;;0.35;0.35;;;-2.80;99.90;;;;;;5085909;28;20501;-82
2021/12/21 03:59:30;;;;;;;0.40;0.40;;;-2.80;99.90;;;;;;5072583;28;20127;-82
2021/12/21 04:01:57;;;;;;;0.40;0.40;;;-2.80;99.90;;;;;;5089706;28;20036;-82
2021/12/21 04:04:25;;;;;;;0.40;0.40;;;-2.90;99.90;;;;;;5089078;28;20049;-82
2021/12/21 04:06:51;;;;;;;0.30;0.30;;;-2.80;99.90;;;;;;5055656;28;20045;-84
2021/12/21 04:09:19;;;;;;;0.30;0.30;;;-2.10;99.90;;;;;;5072561;28;20044;-84
2021/12/21 04:11:46;;;;;;;0.30;0.30;;;-2.90;99.90;;;;;;5056308;28;20041;-82
2021/12/21 04:14:14;;;;;;;0.40;0.40;;;-2.90;99.90;;;;;;5055719;28;20033;-82
2021/12/21 04:16:40;;;;;;;0.38;0.38;;;-2.90;99.90;;;;;;5088571;28;20131;-85
2021/12/21 04:19:07;;;;;;;0.30;0.30;;;-2.90;99.90;;;;;;5073334;28;20127;-85
2021/12/21 04:21:34;;;;;;;0.35;0.35;;;-2.90;99.90;;;;;;5073092;28;20052;-82
2021/12/21 04:24:01;;;;;;;0.30;0.30;;;-2.40;99.90;;;;;;5072812;28;20044;-82
2021/12/21 04:26:28;;;;;;;0.32;0.32;;;-1.80;99.90;;;;;;5087134;28;20036;-85
2021/12/21 04:28:54;;;;;;;0.40;0.40;;;-2.90;99.90;;;;;;5065073;28;20463;-82
2021/12/21 04:31:21;;;;;;;0.40;0.40;;;-2.30;99.90;;;;;;5067249;28;20044;-82
2021/12/21 04:33:48;;;;;;;0.40;0.40;;;-2.90;99.90;;;;;;5088340;28;20040;-84
2021/12/21 04:36:15;;;;;;;0.30;0.30;;;-2.90;99.90;;;;;;5094474;28;20127;-84
2021/12/21 04:38:46;;;;;;;0.38;0.38;;;-2.90;99.90;;;;;;5091731;28;20062;-82
2021/12/21 04:43:48;;;;;;;0.38;0.38;;;-1.90;99.90;;;;;;5109080;28;20175;-83
2021/12/21 04:46:15;;;;;;;0.20;0.20;;;-3.00;99.90;;;;;;5092201;28;20041;-82
2021/12/21 04:48:42;;;;;;;0.40;0.40;;;-3.00;99.90;;;;;;5075236;28;20190;-82
2021/12/21 04:51:09;;;;;;;0.40;0.40;;;-3.00;99.90;;;;;;5092103;28;20059;-82
2021/12/21 04:53:36;;;;;;;0.20;0.20;;;-2.20;99.90;;;;;;5077369;28;20421;-82
2021/12/21 04:56:03;;;;;;;0.40;0.40;;;-3.00;99.90;;;;;;5076285;28;20489;-85
2021/12/21 04:58:30;;;;;;;0.32;0.32;;;-3.00;99.90;;;;;;5092974;28;20707;-82
2021/12/21 05:00:58;;;;;;;0.40;0.40;;;-1.80;99.90;;;;;;5075884;28;20036;-84
2021/12/21 05:03:24;;;;;;;0.30;0.30;;;-3.10;99.90;;;;;;5092015;28;20059;-84
2021/12/21 05:05:52;;;;;;;0.30;0.30;;;-3.10;99.90;;;;;;5091325;28;20040;-84
2021/12/21 05:08:23;;;;;;;0.40;0.40;;;-3.10;99.90;;;;;;5091940;28;20029;-84
2021/12/21 05:10:54;;;;;;;0.40;0.40;;;-3.10;99.90;;;;;;5091904;28;20032;-82
2021/12/21 05:13:23;;;;;;;0.40;0.40;;;-1.90;99.90;;;;;;5075352;28;20036;-82
2021/12/21 05:15:50;;;;;;;0.30;0.30;;;-2.70;99.90;;;;;;5091579;28;20037;-84
2021/12/21 05:18:18;;;;;;;0.32;0.32;;;-2.10;99.90;;;;;;5074918;28;20155;-82
2021/12/21 05:20:45;;;;;;;0.35;0.35;;;-3.10;99.90;;;;;;5074730;28;20058;-82
2021/12/21 05:23:13;;;;;;;0.30;0.30;;;-3.10;99.90;;;;;;5074658;28;20131;-84
2021/12/21 05:25:40;;;;;;;0.32;0.32;;;-3.20;99.90;;;;;;5091652;28;20036;-82
2021/12/21 05:28:09;;;;;;;0.40;0.40;;;-3.10;99.90;;;;;;5091416;28;20040;-85
2021/12/21 05:30:36;;;;;;;0.30;0.30;;;-3.10;99.90;;;;;;5074828;28;20041;-82
2021/12/21 05:33:04;;;;;;;0.40;0.40;;;-3.10;99.90;;;;;;5091130;28;20037;-84
2021/12/21 05:35:32;;;;;;;0.50;0.50;;;-3.10;99.90;;;;;;5091907;28;20046;-82
2021/12/21 05:38:03;;;;;;;0.40;0.40;;;-3.20;99.90;;;;;;5074332;28;20036;-84
2021/12/21 05:40:34;;;;;;;0.30;0.30;;;-3.20;99.90;;;;;;5091570;28;20040;-84
2021/12/21 05:43:02;;;;;;;0.40;0.40;;;-3.20;99.90;;;;;;5090988;28;20101;-82
2021/12/21 05:45:29;;;;;;;0.30;0.30;;;-3.20;99.90;;;;;;5075754;28;20036;-82
2021/12/21 05:47:55;;;;;;;0.35;0.35;;;-3.20;99.90;;;;;;5074564;28;20043;-82
2021/12/21 05:50:23;;;;;;;0.40;0.40;;;-3.20;99.90;;;;;;5075259;28;20094;-84
2021/12/21 05:52:50;;;;;;;0.30;0.30;;;-3.20;99.90;;;;;;5074089;28;20094;-83
2021/12/21 05:55:19;;;;;;;0.40;0.40;;;-3.20;99.90;;;;;;5090982;28;20040;-82
2021/12/21 05:57:46;;;;;;;0.30;0.30;;;-3.30;99.90;;;;;;5090726;28;20488;-82
2021/12/21 06:00:19;;;;;;;0.40;0.40;;;-3.20;99.90;;;;;;5090873;28;20182;-84
2021/12/21 06:02:46;;;;;;;0.40;0.40;;;-3.20;99.90;;;;;;5090280;28;20086;-84
2021/12/21 06:05:12;;;;;;;0.77;0.77;;;-3.30;99.90;;;;;;5090434;28;20091;-82
2021/12/21 06:07:39;;;;;;;0.40;0.40;;;-3.20;99.90;;;;;;5090875;28;20049;-85
2021/12/21 06:10:12;;;;;;;0.40;0.40;;;-3.30;99.90;;;;;;5087242;28;20048;-84
2021/12/21 06:26:43;;;;;;;0.40;0.40;;;-3.30;99.90;;;;;;5095080;28;20087;-82
2021/12/21 06:29:11;;;;;;;0.40;0.40;;;-3.30;99.90;;;;;;5087036;28;20037;-85
2021/12/21 06:31:41;;;;;;;0.30;0.30;;;-3.40;99.90;;;;;;5069697;28;20448;-84
2021/12/21 06:34:08;;;;;;;0.40;0.40;;;-3.30;99.90;;;;;;5089437;28;20493;-81
2021/12/21 06:36:36;;;;;;;0.40;0.40;;;-2.80;99.90;;;;;;5069940;28;20048;-84
2021/12/21 06:39:05;;;;;;;0.40;0.40;;;-3.30;99.90;;;;;;5086297;28;20076;-83
2021/12/21 06:41:35;;;;;;;0.40;0.40;;;-2.70;99.90;;;;;;5065196;28;20044;-81
2021/12/21 06:44:04;;;;;;;0.40;0.40;;;-2.80;99.90;;;;;;5089467;28;20105;-84
2021/12/21 06:51:53;;;;;;;0.40;0.40;;;-3.30;99.90;;;;;;5106318;28;19920;-80
2021/12/21 06:54:20;;;;;;;0.30;0.30;;;-3.30;99.90;;;;;;5072040;28;20453;-77
2021/12/21 06:56:48;;;;;;;0.40;0.40;;;-3.40;99.90;;;;;;5072727;28;20072;-82
2021/12/21 06:59:16;;;;;;;0.40;0.40;;;-3.40;99.90;;;;;;5090094;28;20059;-81
2021/12/21 07:01:43;;;;;;;0.28;0.28;;;-3.20;99.90;;;;;;5072758;28;20421;-81
2021/12/21 07:04:11;;;;;;;0.30;0.30;;;-3.40;99.90;;;;;;5072291;28;20052;-81
2021/12/21 07:06:40;;;;;;;0.60;0.60;;;-3.40;99.90;;;;;;5106135;28;20048;-82
2021/12/21 07:19:40;;;;;;;;;;;-3.40;99.90;;;;;;5092291;28;20045;-82
2021/12/21 07:22:07;;;;;;;0.40;0.40;;;-3.40;99.90;;;;;;5089194;28;19928;-81
2021/12/21 07:24:34;;;;;;;0.50;0.50;;;-3.40;99.90;;;;;;5106052;28;20528;-82
2021/12/21 07:27:02;;;;;;;0.30;0.30;;;-3.40;99.90;;;;;;5072234;28;20127;-81
2021/12/21 07:29:29;;;;;;;0.40;0.40;;;-3.40;99.90;;;;;;5072320;28;20035;-81
2021/12/21 07:31:55;;;;;;;0.30;0.30;;;-3.40;99.90;;;;;;5073475;28;20037;-82
2021/12/21 07:34:22;;;;;;;0.40;0.40;;;-3.50;99.90;;;;;;5092549;28;20056;-82
2021/12/21 07:36:49;;;;;;;0.30;0.30;;;-3.40;99.90;;;;;;5076155;28;20041;-82
2021/12/21 07:39:18;;;;;;;0.40;0.40;;;-3.50;99.90;;;;;;5109603;28;20599;-82
2021/12/21 07:41:46;;;;;;;0.30;0.30;;;-3.50;99.90;;;;;;5093152;28;20080;-82
2021/12/21 07:44:13;;;;;;;0.40;0.40;;;-3.40;99.90;;;;;;5092981;28;20077;-81
2021/12/21 07:46:42;;;;;;;0.30;0.30;;;-3.40;99.90;;;;;;5109543;28;20049;-80
2021/12/21 07:49:09;;;;;;;0.32;0.32;;;-3.40;99.90;;;;;;5076602;28;20048;-81
2021/12/21 07:51:36;;;;;;;0.40;0.40;;;-3.40;99.90;;;;;;5076636;28;20072;-81
2021/12/21 07:54:03;;;;;;;0.30;0.30;;;-3.40;99.90;;;;;;5076420;28;20059;-82
2021/12/21 07:56:30;;;;;;;0.30;0.30;;;-3.50;99.90;;;;;;5075919;28;20070;-81
2021/12/21 07:58:57;;;;;;;0.40;0.40;;;-3.50;99.90;;;;;;5078863;28;20050;-82
2021/12/21 08:01:24;;;;;;;0.30;0.30;;;-3.40;99.90;;;;;;5109254;28;20123;-81
2021/12/21 08:03:53;;;;;;;0.63;0.52;;;-3.40;99.90;;;;;;5092602;28;20185;-81
2021/12/21 08:06:20;;;;;;;0.40;0.40;;;-3.40;99.90;;;;;;5092621;28;20044;-81
2021/12/21 08:08:49;;;;;;;0.40;0.40;;;-3.40;99.90;;;;;;5076438;28;20094;-81
2021/12/21 08:14:02;;;;;;;0.47;0.47;;;-3.40;99.90;;;;;;5095318;28;20040;-81
2021/12/21 08:16:28;;;;;;;0.40;0.40;;;-2.90;99.90;;;;;;5092067;28;20131;-81
2021/12/21 08:18:55;;;;;;;0.50;0.50;;;-3.40;99.90;;;;;;5092612;28;20127;-81
2021/12/21 08:21:24;;;;;;;0.30;0.30;;;-2.70;99.90;;;;;;5092394;28;20084;-81
2021/12/21 08:23:52;;;;;;;0.40;0.40;;;-3.30;99.90;;;;;;5109283;28;20036;-82
2021/12/21 08:26:19;;;;;;;0.30;0.30;;;-3.30;99.90;;;;;;5092294;28;20040;-82
2021/12/21 08:28:46;;;;;;;0.30;0.30;;;-2.60;99.90;;;;;;5076054;28;20036;-81
2021/12/21 08:31:13;;;;;;;0.30;0.30;;;-3.30;99.90;;;;;;5075680;28;20063;-81
2021/12/21 08:33:41;;;;;;;0.30;0.30;;;-3.30;99.90;;;;;;5075914;28;20512;-82
2021/12/21 08:36:10;;;;;;;0.30;0.30;;;-3.20;99.90;;;;;;5092192;28;20043;-81
2021/12/21 08:38:40;;;;;;;0.30;0.30;;;-3.20;99.90;;;;;;5075902;28;20039;-82
2021/12/21 08:41:07;;;;;;;0.30;0.30;;;-3.30;99.90;;;;;;5075948;28;20033;-81
2021/12/21 08:43:35;;;;;;;0.40;0.40;;;-3.20;99.90;;;;;;5074502;28;20044;-81
2021/12/21 08:46:03;;;;;;;0.30;0.30;;;-2.10;99.90;;;;;;5075545;28;20040;-82
2021/12/21 08:48:31;;;;;;;0.38;0.38;;;-2.00;99.90;;;;;;5108147;28;20032;-82
2021/12/21 08:51:00;;;;;;;0.30;0.30;;;-2.00;99.90;;;;;;5108552;28;20073;-81
2021/12/21 08:53:27;;;;;;;0.30;0.30;;;-3.10;99.90;;;;;;5091582;28;20037;-82
2021/12/21 08:55:55;;;;;;;0.30;0.30;;;-3.10;99.90;;;;;;5091594;28;20102;-81
2021/12/21 08:58:23;;;;;;;0.40;0.40;;;-3.00;99.90;;;;;;5074997;28;20040;-81
2021/12/21 09:00:51;;;;;;;0.30;0.30;;;-3.00;99.90;;;;;;5091649;28;20044;-81
2021/12/21 09:03:19;;;;;;;0.30;0.30;;;-2.40;99.90;;;;;;5074772;28;20194;-81
2021/12/21 09:05:46;;;;;;;0.32;0.32;;;-2.90;99.90;;;;;;5075296;28;20079;-82
2021/12/21 09:08:13;;;;;;;0.38;0.38;;;-2.90;99.90;;;;;;5074927;28;20141;-82
2021/12/21 09:10:40;;;;;;;0.30;0.30;;;-2.80;99.90;;;;;;5075073;28;20051;-81
2021/12/21 09:13:09;;;;;;;0.40;0.40;;;-2.80;99.90;;;;;;5091501;28;20040;-82
2021/12/21 09:15:37;;;;;;;0.30;0.30;;;-2.70;99.90;;;;;;5091171;28;20485;-82
2021/12/21 09:18:05;;;;;;;0.40;0.40;;;-2.70;99.90;;;;;;5091355;28;20059;-82
2021/12/21 09:20:33;;;;;;;0.50;0.50;;;-2.60;99.90;;;;;;5074333;28;20051;-82
2021/12/21 09:23:00;;;;;;;0.30;0.30;;;-2.60;99.90;;;;;;5091265;28;20045;-83
2021/12/21 09:25:29;;;;;;;0.30;0.30;;;-2.60;99.90;;;;;;5090988;28;20040;-82
2021/12/21 09:27:57;;;;;;;0.30;0.30;;;-2.50;99.90;;;;;;5091473;28;20035;-82
2021/12/21 09:30:26;;;;;;;0.30;0.30;;;-1.90;99.90;;;;;;5074411;28;20404;-82
2021/12/21 09:32:52;;;;;;;0.40;0.40;;;-2.40;99.90;;;;;;5091150;28;20047;-82
2021/12/21 09:35:20;;;;;;;0.40;0.40;;;-2.40;99.90;;;;;;5074134;28;20036;-81
2021/12/21 09:37:47;;;;;;;0.30;0.30;;;-1.30;99.90;;;;;;5090910;28;20063;-80
2021/12/21 09:40:17;;;;;;;0.30;0.30;;;-2.40;99.90;;;;;;5074744;28;20036;-81
2021/12/21 09:42:44;;;;;;;0.30;0.30;;;-2.30;99.90;;;;;;5091372;28;20127;-81
2021/12/21 09:45:12;;;;;;;0.30;0.30;;;-2.30;99.90;;;;;;5074774;28;20036;-80
2021/12/21 09:47:39;;;;;;;0.30;0.30;;;-1.10;99.90;;;;;;5091173;28;20049;-81
2021/12/21 09:50:09;;;;;;;0.22;0.22;;;-2.30;99.90;;;;;;5074542;28;20428;-81
2021/12/21 09:52:36;;;;;;;0.32;0.32;;;-2.20;99.90;;;;;;5107032;28;20040;-80
2021/12/21 09:55:06;;;;;;;0.43;0.43;;;-0.80;99.90;;;;;;5073487;28;20040;-80
2021/12/21 09:57:33;;;;;;;0.40;0.40;;;-2.10;99.90;;;;;;5090705;28;20044;-81
2021/12/21 10:00:00;;;;;;;0.30;0.30;;;-2.80;99.90;;;;;;5074696;28;20103;-81
2021/12/21 10:02:33;;;;;;;0.40;0.40;;;-1.30;99.90;;;;;;5074509;28;20054;-81
2021/12/21 10:05:06;;;;;;;0.30;0.30;;;-1.30;99.90;;;;;;5074774;28;20060;-82
2021/12/21 10:07:33;;;;;;;0.40;0.40;;;-1.90;99.90;;;;;;5107293;28;20110;-81
2021/12/21 10:10:15;;;;;;;0.40;0.40;;;-1.90;99.90;;;;;;5073807;28;20654;-81
2021/12/21 10:12:45;;;;;;;0.30;0.30;;;-1.90;99.90;;;;;;5090582;28;20439;-81
2021/12/21 10:15:20;;;;;;;0.30;0.30;;;-1.10;99.90;;;;;;5090760;28;20047;-82
2021/12/21 10:18:00;;;;;;;0.30;0.30;;;-1.70;99.90;;;;;;5090440;28;20051;-81
2021/12/21 10:20:34;;;;;;;0.30;0.30;;;-1.70;99.90;;;;;;5074009;28;20409;-82
2021/12/21 10:23:14;;;;;;;0.30;0.30;;;-1.60;99.90;;;;;;5090515;28;20378;-81
2021/12/21 10:25:44;;;;;;;0.30;0.30;;;-1.50;99.90;;;;;;5106712;28;20050;-82
2021/12/21 10:28:11;;;;;;;0.28;0.28;;;-1.50;99.90;;;;;;5106616;28;20041;-82
2021/12/21 10:30:53;;;;;;;0.30;0.30;;;-1.10;99.90;;;;;;5107175;28;20082;-81
2021/12/21 10:33:25;;;;;;;0.30;0.30;;;-1.40;99.90;;;;;;5107337;28;20043;-81
2021/12/21 10:35:55;;;;;;;0.40;0.40;;;-1.30;99.90;;;;;;5091203;28;20036;-82
2021/12/21 10:38:35;;;;;;;0.30;0.30;;;-1.00;99.90;;;;;;5090354;28;20491;-82
2021/12/21 10:41:09;;;;;;;0.30;0.30;;;-1.30;99.90;;;;;;5109074;28;20106;-81
2021/12/21 10:43:36;;;;;;;0.28;0.28;;;-1.20;99.90;;;;;;5106111;28;20040;-81
2021/12/21 10:46:03;;;;;;;0.40;0.40;;;-1.20;99.90;;;;;;5073191;28;20043;-80
2021/12/21 10:48:35;;;;;;;0.30;0.30;;;-1.10;99.90;;;;;;5106223;28;20148;-80
2021/12/21 10:51:12;;;;;;;0.30;0.30;;;-1.10;99.90;;;;;;5110052;28;20435;-81
2021/12/21 10:53:47;;;;;;;0.38;0.38;;;-1.00;99.90;;;;;;5073845;28;20481;-81
2021/12/21 10:56:16;;;;;;;0.20;0.20;;;-0.90;99.90;;;;;;5106273;28;20044;-80
2021/12/21 10:58:44;;;;;;;0.30;0.30;;;-0.10;99.90;;;;;;5089477;28;20046;-81
2021/12/21 11:01:20;;;;;;;0.30;0.30;;;0.30;99.90;;;;;;5089644;28;20037;-80
2021/12/21 11:03:53;;;;;;;;;;;0.00;99.90;;;;;;5089513;28;20525;-81
2021/12/21 11:06:34;;;;;;;0.30;0.30;;;-0.80;99.90;;;;;;5105831;28;20007;-80
2021/12/21 11:09:04;;;;;;;0.30;0.30;;;-0.80;99.90;;;;;;5089374;28;20503;-81
2021/12/21 11:11:34;;;;;;;0.30;0.30;;;-0.70;99.90;;;;;;5073416;28;20102;-82
2021/12/21 11:14:17;;;;;;;0.30;0.30;;;-0.70;99.90;;;;;;5106072;28;20509;-81
2021/12/21 11:16:50;;;;;;;0.30;0.30;;;-0.60;99.90;;;;;;5072789;28;20467;-81
2021/12/21 11:19:20;;;;;;;0.30;0.30;;;-0.60;99.90;;;;;;5106195;28;20084;-81
2021/12/21 11:21:48;;;;;;;0.20;0.20;;;-0.60;99.90;;;;;;5088962;28;20040;-81
2021/12/21 11:24:17;;;;;;;0.30;0.30;;;-0.60;99.90;;;;;;5073043;28;20086;-82
2021/12/21 11:26:46;;;;;;;0.30;0.30;;;-0.50;99.90;;;;;;5105545;28;20144;-82
2021/12/21 11:29:16;;;;;;;0.15;0.15;;;-0.40;99.90;;;;;;5072935;28;20097;-81
2021/12/21 11:31:51;;;;;;;0.20;0.20;;;0.20;99.90;;;;;;5105790;28;20101;-81
2021/12/21 11:34:21;;;;;;;0.30;0.30;;;-0.30;99.90;;;;;;5089352;28;20047;-82
2021/12/21 11:39:38;;;;;;;0.30;0.30;;;-0.20;99.90;;;;;;5105613;28;20139;-82
2021/12/21 11:42:08;;;;;;;0.30;0.30;;;-0.20;99.90;;;;;;5089205;28;20459;-82
2021/12/21 11:45:01;;;;;;;0.30;0.30;;;-0.10;99.90;;;;;;5105043;28;20076;-81
2021/12/21 11:47:34;;;;;;;0.28;0.28;;;0.90;99.90;;;;;;5088805;28;20044;-81
2021/12/21 11:50:08;;;;;;;0.40;0.40;;;0.40;99.90;;;;;;5105946;28;20076;-81
2021/12/21 11:52:45;;;;;;;0.30;0.30;;;0.00;99.90;;;;;;5105251;28;20772;-81
2021/12/21 11:55:14;;;;;;;0.20;0.20;;;0.00;99.90;;;;;;5089272;28;20247;-81
2021/12/21 11:57:50;;;;;;;0.20;0.20;;;-0.10;99.90;;;;;;5088742;28;20084;-81
2021/12/21 12:00:26;;;;;;;0.20;0.20;;;0.00;99.90;;;;;;5105853;28;20048;-82
2021/12/21 12:02:54;;;;;;;0.35;0.35;;;-0.10;99.90;;;;;;5105684;28;20078;-81
2021/12/21 12:05:28;;;;;;;0.15;0.15;;;0.00;99.90;;;;;;5072211;28;20491;-82
2021/12/21 12:08:08;;;;;;;0.30;0.30;;;0.00;99.90;;;;;;5105416;28;20090;-81
2021/12/21 12:10:39;;;;;;;0.30;0.30;;;0.00;99.90;;;;;;5105602;28;20417;-82
2021/12/21 12:13:32;;;;;;;0.30;0.30;;;0.70;99.90;;;;;;5089037;28;20418;-82
2021/12/21 12:16:05;;;;;;;0.30;0.30;;;0.10;99.90;;;;;;5088628;28;20075;-82
2021/12/21 12:18:36;;;;;;;0.25;0.25;;;0.00;99.90;;;;;;5106122;28;20440;-82
2021/12/21 12:21:23;;;;;;;0.30;0.30;;;0.70;99.90;;;;;;5092208;28;20052;-83
2021/12/21 12:24:01;;;;;;;0.30;0.30;;;0.10;99.90;;;;;;5108993;28;20044;-82
2021/12/21 12:26:38;;;;;;;0.30;0.30;;;0.10;99.90;;;;;;5092140;28;20135;-82
2021/12/21 12:29:19;;;;;;;0.30;0.30;;;0.20;99.90;;;;;;5108592;28;20443;-82
2021/12/21 12:32:04;;;;;;;0.30;0.30;;;0.20;99.90;;;;;;5108399;28;20481;-81
2021/12/21 12:34:36;;;;;;;0.30;0.30;;;0.20;99.90;;;;;;5108668;28;20043;-82
2021/12/21 12:37:18;;;;;;;0.30;0.30;;;0.10;99.90;;;;;;5092102;28;20086;-81
2021/12/21 12:39:48;;;;;;;0.20;0.20;;;0.20;99.90;;;;;;5108427;28;20036;-82
2021/12/21 12:42:28;;;;;;;0.20;0.20;;;0.20;99.90;;;;;;5091699;28;20048;-82
2021/12/21 12:45:11;;;;;;;0.30;0.30;;;0.30;99.90;;;;;;5108383;28;20041;-82
2021/12/21 12:47:46;;;;;;;0.30;0.30;;;0.30;99.90;;;;;;5091869;28;20523;-81
2021/12/21 12:50:37;;;;;;;0.20;0.20;;;0.30;99.90;;;;;;5091945;28;20044;-81
2021/12/21 12:53:06;;;;;;;0.20;0.20;;;0.30;99.90;;;;;;5091551;28;20048;-81
2021/12/21 12:55:51;;;;;;;0.22;0.22;;;0.30;99.90;;;;;;5092007;28;20040;-81
2021/12/21 12:58:21;;;;;;;0.30;0.30;;;0.30;99.90;;;;;;5091675;28;20044;-82
2021/12/21 13:01:04;;;;;;;0.20;0.20;;;0.30;99.90;;;;;;5091589;28;20102;-81
2021/12/21 13:03:37;;;;;;;0.20;0.20;;;0.30;99.90;;;;;;5091185;28;20048;-81
2021/12/21 13:06:41;;;;;;;0.30;0.30;;;1.50;99.90;;;;;;5108163;28;20488;-81
2021/12/21 13:09:12;;;;;;;0.30;0.30;;;0.40;99.90;;;;;;5088524;28;20048;-81
2021/12/21 13:11:40;;;;;;;0.30;0.30;;;0.40;99.90;;;;;;5091623;28;20042;-81
2021/12/21 13:14:10;;;;;;;0.40;0.40;;;1.10;99.90;;;;;;5074687;28;20428;-82
2021/12/21 13:16:38;;;;;;;0.20;0.20;;;0.30;99.90;;;;;;5091718;28;20047;-82
2021/12/21 13:19:10;;;;;;;0.30;0.30;;;0.50;99.90;;;;;;5074361;28;20049;-81
2021/12/21 13:21:50;;;;;;;0.30;0.30;;;0.30;99.90;;;;;;5108088;28;20127;-82
2021/12/21 13:24:21;;;;;;;0.25;0.25;;;0.30;99.90;;;;;;5091556;28;20136;-81
2021/12/21 13:26:55;;;;;;;0.30;0.30;;;0.40;99.90;;;;;;5090925;28;20041;-81
2021/12/21 13:29:34;;;;;;;0.20;0.20;;;0.30;99.90;;;;;;5107403;28;20129;-81
2021/12/21 13:32:06;;;;;;;0.30;0.30;;;1.20;99.90;;;;;;5091148;28;20040;-82
2021/12/21 13:34:33;;;;;;;0.40;0.40;;;0.40;99.90;;;;;;5107958;28;20416;-81
2021/12/21 13:37:02;;;;;;;0.20;0.20;;;0.40;99.90;;;;;;5073952;28;20115;-82
2021/12/21 13:39:38;;;;;;;0.20;0.20;;;0.40;99.90;;;;;;5090744;28;20397;-81
2021/12/21 13:42:14;;;;;;;;;;;0.40;99.90;;;;;;5107565;28;20051;-82
2021/12/21 13:44:43;;;;;;;0.30;0.30;;;0.40;99.90;;;;;;5090604;28;20354;-82
2021/12/21 13:47:20;;;;;;;0.30;0.30;;;0.40;99.90;;;;;;5106736;28;20040;-81
2021/12/21 13:50:08;;;;;;;0.22;0.22;;;0.30;99.90;;;;;;5090933;28;20047;-81
2021/12/21 13:52:41;;;;;;;0.20;0.20;;;0.30;99.90;;;;;;5091396;28;20039;-81
2021/12/21 13:55:24;;;;;;;0.25;0.25;;;0.20;99.90;;;;;;5090697;28;20127;-81
2021/12/21 13:57:53;;;;;;;0.30;0.30;;;0.20;99.90;;;;;;5107566;28;20131;-81
2021/12/21 14:00:24;;;;;;;0.20;0.20;;;0.20;99.90;;;;;;5090707;28;20093;-80
2021/12/21 14:03:01;;;;;;;0.30;0.30;;;0.20;99.90;;;;;;5090563;28;20040;-80
2021/12/21 14:05:42;;;;;;;0.20;0.20;;;0.90;99.90;;;;;;5075145;28;20060;-81
2021/12/21 14:08:11;;;;;;;0.22;0.22;;;0.10;99.90;;;;;;5075540;28;20463;-82
2021/12/21 14:10:43;;;;;;;0.30;0.30;;;0.20;99.90;;;;;;5090198;28;20040;-81
2021/12/21 14:13:10;;;;;;;0.30;0.30;;;0.00;99.90;;;;;;5106765;28;20039;-80
2021/12/21 14:15:39;;;;;;;0.30;0.30;;;0.80;99.90;;;;;;5073817;28;20492;-80
2021/12/21 14:18:35;;;;;;;0.30;0.30;;;0.00;99.90;;;;;;5090215;28;20036;-80
2021/12/21 14:21:13;;;;;;;0.30;0.30;;;0.00;99.90;;;;;;5090204;28;20048;-80
2021/12/21 14:23:52;;;;;;;0.20;0.20;;;-0.10;99.90;;;;;;5090127;28;20040;-81
2021/12/21 14:26:24;;;;;;;0.30;0.30;;;-0.10;99.90;;;;;;5089720;28;20505;-80